Terminal Aerodrome Forecast
Issued by NWS

Home | Current Version | Previous Version | Text Only | Print | Product List | Glossary Off
Versions: 1 2 3 4 5 6 7 8 9 10 11 12 13 14 15 16

000
FTUS43 KBIS 221120
TAFDIK
TAF
KDIK 221120Z 2212/2312 25007KT P6SM SCT200
     FM221700 29007KT P6SM FEW110 SCT200
     FM222200 32006KT P6SM FEW110 SCT150
     FM230100 35005KT P6SM FEW250=

USA.gov is the U.S. government's official web portal to all federal, state and local government web resources and services.